TimePST,TemperatureF,Dew PointF,Humidity,Sea Level PressureIn,VisibilityMPH,Wind Direction,Wind SpeedMPH,Gust SpeedMPH,PrecipitationIn,Events,Conditions,WindDirDegrees,DateUTC
12:15 AM,-9999,-9999,N/A,30.40,10.0,SSW,5.8,-,N/A,,Clear,200,2013-02-02 08:15:00
12:35 AM,-9999,-9999,N/A,30.41,10.0,SSW,8.1,-,N/A,,Clear,200,2013-02-02 08:35:00
12:55 AM,-9999,-9999,N/A,30.41,10.0,SSW,6.9,-,N/A,,Clear,200,2013-02-02 08:55:00
1:15 AM,-9999,-9999,N/A,30.41,10.0,SSE,5.8,-,N/A,,Clear,160,2013-02-02 09:15:00
1:35 AM,-9999,-9999,N/A,30.41,10.0,SSW,3.5,-,N/A,,Clear,200,2013-02-02 09:35:00
1:55 AM,-9999,-9999,N/A,30.41,10.0,SSW,6.9,-,N/A,,Clear,200,2013-02-02 09:55:00
2:15 AM,-9999,-9999,N/A,30.41,10.0,South,6.9,-,N/A,,Clear,190,2013-02-02 10:15:00
2:35 AM,-9999,-9999,N/A,30.41,10.0,South,4.6,-,N/A,,Clear,180,2013-02-02 10:35:00
2:55 AM,-9999,-9999,N/A,30.41,10.0,South,6.9,-,N/A,,Clear,190,2013-02-02 10:55:00
3:15 AM,-9999,-9999,N/A,30.41,10.0,South,6.9,-,N/A,,Clear,180,2013-02-02 11:15:00
3:35 AM,-9999,-9999,N/A,30.41,10.0,SSW,5.8,-,N/A,,Clear,210,2013-02-02 11:35:00
3:55 AM,-9999,-9999,N/A,30.41,10.0,SSW,3.5,-,N/A,,Clear,200,2013-02-02 11:55:00
4:15 AM,-9999,-9999,N/A,30.42,10.0,South,5.8,-,N/A,,Clear,190,2013-02-02 12:15:00
4:35 AM,-9999,-9999,N/A,30.42,10.0,SW,6.9,-,N/A,,Clear,220,2013-02-02 12:35:00
4:55 AM,-9999,-9999,N/A,30.41,10.0,SW,5.8,-,N/A,,Clear,230,2013-02-02 12:55:00
5:15 AM,-9999,-9999,N/A,30.42,10.0,SW,5.8,-,N/A,,Clear,220,2013-02-02 13:15:00
5:35 AM,-9999,-9999,N/A,30.41,10.0,SSW,5.8,-,N/A,,Clear,210,2013-02-02 13:35:00
5:55 AM,-9999,-9999,N/A,30.41,10.0,SW,5.8,-,N/A,,Clear,220,2013-02-02 13:55:00
6:15 AM,-9999,-9999,N/A,30.41,10.0,SW,5.8,-,N/A,,Clear,220,2013-02-02 14:15:00
6:35 AM,-9999,-9999,N/A,30.41,10.0,SSW,3.5,-,N/A,,Clear,200,2013-02-02 14:35:00
6:55 AM,-9999,-9999,N/A,30.42,10.0,South,5.8,-,N/A,,Clear,190,2013-02-02 14:55:00
7:15 AM,-9999,-9999,N/A,30.43,10.0,WSW,3.5,-,N/A,,Clear,240,2013-02-02 15:15:00
7:35 AM,-9999,-9999,N/A,30.43,10.0,Calm,Calm,-,N/A,,Clear,0,2013-02-02 15:35:00
7:55 AM,-9999,-9999,N/A,30.44,10.0,Calm,Calm,-,N/A,,Clear,0,2013-02-02 15:55:00
8:15 AM,-9999,-9999,N/A,30.44,10.0,Calm,Calm,-,N/A,,Clear,0,2013-02-02 16:15:00
8:35 AM,-9999,-9999,N/A,30.44,10.0,Calm,Calm,-,N/A,,Clear,0,2013-02-02 16:35:00
8:55 AM,-9999,-9999,N/A,30.44,10.0,Calm,Calm,-,N/A,,Clear,0,2013-02-02 16:55:00
9:15 AM,-9999,-9999,N/A,30.44,10.0,Calm,Calm,-,N/A,,Clear,0,2013-02-02 17:15:00
9:35 AM,-9999,-9999,N/A,30.44,10.0,Calm,Calm,-,N/A,,Clear,0,2013-02-02 17:35:00
9:55 AM,-9999,-9999,N/A,30.45,10.0,Calm,Calm,-,N/A,,Clear,0,2013-02-02 17:55:00
10:15 AM,-9999,-9999,N/A,30.45,10.0,Calm,Calm,-,N/A,,Clear,0,2013-02-02 18:15:00
10:35 AM,-9999,-9999,N/A,30.45,10.0,Calm,Calm,-,N/A,,Clear,0,2013-02-02 18:35:00
10:55 AM,-9999,-9999,N/A,30.45,10.0,Calm,Calm,-,N/A,,Clear,0,2013-02-02 18:55:00
11:15 AM,-9999,-9999,N/A,30.44,10.0,Calm,Calm,-,N/A,,Clear,0,2013-02-02 19:15:00
11:35 AM,-9999,-9999,N/A,30.42,10.0,Calm,Calm,-,N/A,,Clear,0,2013-02-02 19:35:00
11:55 AM,-9999,-9999,N/A,30.41,10.0,ENE,5.8,-,N/A,,Clear,70,2013-02-02 19:55:00
12:15 PM,-9999,-9999,N/A,30.40,10.0,ENE,3.5,-,N/A,,Clear,60,2013-02-02 20:15:00
12:35 PM,-9999,-9999,N/A,30.39,10.0,ENE,3.5,-,N/A,,Clear,70,2013-02-02 20:35:00
12:55 PM,-9999,-9999,N/A,30.39,10.0,ENE,3.5,-,N/A,,Clear,60,2013-02-02 20:55:00
1:15 PM,-9999,-9999,N/A,30.38,10.0,ENE,3.5,-,N/A,,Clear,70,2013-02-02 21:15:00
1:35 PM,-9999,-9999,N/A,30.37,10.0,Calm,Calm,-,N/A,,Clear,0,2013-02-02 21:35:00
1:55 PM,-9999,-9999,N/A,30.37,10.0,Calm,Calm,-,N/A,,Clear,0,2013-02-02 21:55:00
2:15 PM,-9999,-9999,N/A,30.37,10.0,Calm,Calm,-,N/A,,Clear,0,2013-02-02 22:15:00
2:35 PM,-9999,-9999,N/A,30.37,10.0,Calm,Calm,-,N/A,,Clear,0,2013-02-02 22:35:00
2:55 PM,-9999,-9999,N/A,30.36,10.0,Calm,Calm,-,N/A,,Clear,0,2013-02-02 22:55:00
3:35 PM,-9999,-9999,N/A,30.36,10.0,Calm,Calm,-,N/A,,Clear,0,2013-02-02 23:35:00
4:15 PM,-9999,-9999,N/A,30.35,10.0,Calm,Calm,-,N/A,,Clear,0,2013-02-03 00:15:00
4:55 PM,-9999,-9999,N/A,30.35,10.0,Calm,Calm,-,N/A,,Clear,0,2013-02-03 00:55:00
5:15 PM,86.0,82.4,89,30.35,10.0,Calm,Calm,-,N/A,,Clear,0,2013-02-03 01:15:00
5:35 PM,150.8,150.8,100,30.35,10.0,Calm,Calm,-,N/A,,Clear,0,2013-02-03 01:35:00
5:55 PM,140.0,140.0,100,30.36,10.0,Calm,Calm,-,N/A,,Clear,0,2013-02-03 01:55:00
6:15 PM,-9999,-9999,N/A,30.36,10.0,Calm,Calm,-,N/A,,Clear,0,2013-02-03 02:15:00
6:55 PM,165.2,165.2,100,30.36,10.0,Calm,Calm,-,N/A,,Partly Cloudy,0,2013-02-03 02:55:00
7:15 PM,-9999,-9999,N/A,30.35,10.0,Calm,Calm,-,N/A,,Clear,0,2013-02-03 03:15:00
7:35 PM,-9999,-9999,N/A,30.36,10.0,Calm,Calm,-,N/A,,Clear,0,2013-02-03 03:35:00
7:55 PM,-9999,-9999,N/A,30.35,10.0,Calm,Calm,-,N/A,,Clear,0,2013-02-03 03:55:00
8:15 PM,176.0,176.0,100,30.35,10.0,Calm,Calm,-,N/A,,Clear,0,2013-02-03 04:15:00
8:35 PM,149.0,149.0,100,30.34,10.0,SSW,3.5,-,N/A,,Clear,200,2013-02-03 04:35:00
8:55 PM,149.0,149.0,100,30.34,10.0,Calm,Calm,-,N/A,,Clear,0,2013-02-03 04:55:00
9:15 PM,143.6,143.6,100,30.34,10.0,Calm,Calm,-,N/A,,Clear,0,2013-02-03 05:15:00
9:35 PM,136.4,136.4,100,30.33,10.0,Calm,Calm,-,N/A,,Clear,0,2013-02-03 05:35:00
9:55 PM,129.2,129.2,100,30.33,10.0,Calm,Calm,-,N/A,,Clear,0,2013-02-03 05:55:00
10:15 PM,98.6,98.6,100,30.33,10.0,Calm,Calm,-,N/A,,Partly Cloudy,0,2013-02-03 06:15:00
10:35 PM,82.4,82.4,100,30.33,10.0,SSW,3.5,-,N/A,,Partly Cloudy,210,2013-02-03 06:35:00
10:55 PM,77.0,77.0,100,30.33,10.0,SSW,3.5,-,N/A,,Partly Cloudy,200,2013-02-03 06:55:00
11:15 PM,93.2,93.2,100,30.32,10.0,SW,3.5,-,N/A,,Mostly Cloudy,230,2013-02-03 07:15:00
11:35 PM,59.0,59.0,100,30.32,10.0,SSW,3.5,-,N/A,,Scattered Clouds,210,2013-02-03 07:35:00